Time;durP1;ratioP1;P1;durP2;ratioP2;P2;SDS_P1;SDS_P2;PMS_P1;PMS_P2;Temp;Humidity;BMP_temperature;BMP_pressure;BME280_temperature;BME280_humidity;BME280_pressure;Samples;Min_cycle;Max_cycle;Signal;HPM_P1;HPM_P2
2022/12/18 00:00:50;;;;;;;39.70;20.27;;;-1.80;99.90;;;;;;5054329;28;20227;-82
2022/12/18 00:03:38;;;;;;;37.80;20.80;;;-1.60;99.90;;;;;;5042847;28;20222;-82
2022/12/18 00:06:30;;;;;;;39.07;19.53;;;-1.70;99.90;;;;;;5047157;28;20232;-79
2022/12/18 00:09:19;;;;;;;39.03;20.03;;;-1.70;99.90;;;;;;5040360;28;20222;-80
2022/12/18 00:12:08;;;;;;;38.67;19.97;;;-1.80;99.90;;;;;;5042037;28;20226;-80
2022/12/18 00:15:05;;;;;;;39.60;20.73;;;-1.70;99.90;;;;;;5039048;28;20273;-80
2022/12/18 00:17:53;;;;;;;38.67;20.00;;;-1.70;99.90;;;;;;5040116;28;20238;-79
2022/12/18 00:20:42;;;;;;;37.10;19.53;;;-1.70;99.90;;;;;;5044661;28;20228;-78
2022/12/18 00:23:31;;;;;;;38.70;21.47;;;-1.60;99.90;;;;;;5053964;28;20227;-78
2022/12/18 00:26:22;;;;;;;40.23;20.60;;;-1.60;99.90;;;;;;5041496;28;20220;-78
2022/12/18 00:29:15;;;;;;;40.80;21.33;;;-1.60;99.90;;;;;;5038649;28;20285;-78
2022/12/18 00:32:05;;;;;;;38.90;20.77;;;-1.70;99.90;;;;;;5040604;28;20758;-77
2022/12/18 00:34:54;;;;;;;38.03;21.40;;;-1.50;99.90;;;;;;5054228;28;20230;-78
2022/12/18 00:37:43;;;;;;;42.17;21.43;;;-1.60;99.90;;;;;;5057271;28;20257;-77
2022/12/18 00:40:32;;;;;;;45.07;22.73;;;-1.50;99.90;;;;;;5045967;28;20231;-77
2022/12/18 00:43:20;;;;;;;39.20;21.23;;;-1.50;99.90;;;;;;5053643;28;20358;-78
2022/12/18 00:46:09;;;;;;;40.37;21.23;;;-1.40;99.90;;;;;;5047093;28;20254;-78
2022/12/18 00:48:59;;;;;;;40.80;21.60;;;-1.40;99.90;;;;;;5052315;28;20231;-78
2022/12/18 00:51:49;;;;;;;44.67;22.93;;;-1.50;99.90;;;;;;5037866;28;20215;-77
2022/12/18 00:54:37;;;;;;;42.77;22.20;;;-1.40;99.90;;;;;;5044420;28;20765;-78
2022/12/18 00:57:26;;;;;;;45.40;22.80;;;-1.40;99.90;;;;;;5042057;28;20233;-76
2022/12/18 01:00:16;;;;;;;40.27;22.07;;;-1.50;99.90;;;;;;5047025;28;20686;-76
2022/12/18 01:03:05;;;;;;;44.23;21.73;;;-1.40;99.90;;;;;;5060281;28;20227;-76
2022/12/18 01:05:55;;;;;;;44.27;22.40;;;-1.40;99.90;;;;;;5039358;28;20224;-76
2022/12/18 01:08:44;;;;;;;42.90;22.23;;;-1.40;99.90;;;;;;5043996;28;20220;-76
2022/12/18 01:11:33;;;;;;;45.97;21.83;;;-1.40;99.90;;;;;;5061149;28;20280;-76
2022/12/18 01:14:22;;;;;;;44.60;21.63;;;-1.40;99.90;;;;;;5059718;28;20934;-76
2022/12/18 01:17:11;;;;;;;43.60;22.80;;;-1.30;99.90;;;;;;5039627;28;20222;-78
2022/12/18 01:19:59;;;;;;;43.33;22.03;;;-1.40;99.90;;;;;;5059184;28;20227;-76
2022/12/18 01:22:49;;;;;;;39.10;20.27;;;-1.30;99.90;;;;;;5059439;28;20608;-78
2022/12/18 01:25:39;;;;;;;42.20;21.27;;;-1.60;99.90;;;;;;5047291;28;20227;-78
2022/12/18 01:28:30;;;;;;;42.53;21.03;;;-1.50;99.90;;;;;;5058734;28;20728;-78
2022/12/18 01:31:21;;;;;;;41.83;21.17;;;-1.50;99.90;;;;;;5040933;28;20224;-77
2022/12/18 01:34:10;;;;;;;41.70;21.63;;;-1.40;99.90;;;;;;5044632;28;20249;-78
2022/12/18 01:36:59;;;;;;;43.87;22.37;;;-1.50;99.90;;;;;;5041706;28;20233;-78
2022/12/18 01:39:49;;;;;;;39.63;20.97;;;-1.40;99.90;;;;;;5060807;28;20239;-78
2022/12/18 01:42:39;;;;;;;45.67;21.80;;;-1.30;99.90;;;;;;5053336;28;20220;-79
2022/12/18 01:45:31;;;;;;;38.97;20.90;;;-1.30;99.90;;;;;;5040296;28;20225;-78
2022/12/18 01:48:19;;;;;;;40.73;21.43;;;-1.30;99.90;;;;;;5052267;28;20219;-76
2022/12/18 01:51:11;;;;;;;40.60;20.80;;;-1.30;99.90;;;;;;5044234;28;20235;-78
2022/12/18 01:54:00;;;;;;;42.70;20.53;;;-1.30;99.90;;;;;;5041648;28;20250;-78
2022/12/18 01:56:51;;;;;;;40.20;20.13;;;-1.40;99.90;;;;;;5048907;28;20218;-79
2022/12/18 01:59:42;;;;;;;40.93;19.93;;;-1.30;99.90;;;;;;5047847;28;20218;-78
2022/12/18 02:02:32;;;;;;;39.53;20.37;;;-1.40;99.90;;;;;;5034440;28;20221;-77
2022/12/18 02:05:29;;;;;;;43.17;20.23;;;-1.30;99.90;;;;;;5041721;28;20258;-76
2022/12/18 02:08:22;;;;;;;41.40;20.23;;;-1.40;99.90;;;;;;5046806;28;20227;-77
2022/12/18 02:11:18;;;;;;;41.80;20.17;;;-1.20;99.90;;;;;;5042668;28;20282;-78
2022/12/18 02:14:18;;;;;;;38.33;19.43;;;-1.30;99.90;;;;;;5061763;28;20724;-78
2022/12/18 02:17:12;;;;;;;43.17;19.57;;;-1.40;99.90;;;;;;5054745;28;20224;-77
2022/12/18 02:20:10;;;;;;;40.00;19.30;;;-1.30;99.90;;;;;;5058297;28;20218;-78
2022/12/18 02:23:17;;;;;;;41.00;19.47;;;-1.30;99.90;;;;;;5047660;28;20227;-77
2022/12/18 02:26:17;;;;;;;41.53;18.77;;;-1.40;99.90;;;;;;5039433;28;20314;-77
2022/12/18 02:29:10;;;;;;;45.90;20.77;;;-1.40;99.90;;;;;;5054166;28;20216;-78
2022/12/18 02:32:00;;;;;;;42.20;19.30;;;-1.40;99.90;;;;;;5043931;28;20219;-77
2022/12/18 02:34:51;;;;;;;41.17;20.40;;;-1.30;99.90;;;;;;5048808;28;20629;-79
2022/12/18 02:37:46;;;;;;;41.97;20.93;;;-1.30;99.90;;;;;;5042408;28;20220;-79
2022/12/18 02:40:38;;;;;;;43.20;21.30;;;-1.30;99.90;;;;;;5041246;28;20228;-79
2022/12/18 02:43:28;;;;;;;39.87;21.23;;;-1.30;99.90;;;;;;5039426;28;20227;-79
2022/12/18 02:46:31;;;;;;;39.93;20.07;;;-1.30;99.90;;;;;;5038725;28;20303;-78
2022/12/18 02:49:36;;;;;;;43.23;20.90;;;-1.30;99.90;;;;;;5041073;28;20235;-78
2022/12/18 02:52:32;;;;;;;41.77;20.77;;;-1.30;99.90;;;;;;5040840;28;20246;-78
2022/12/18 02:55:36;;;;;;;43.17;20.50;;;-1.30;99.90;;;;;;5050631;28;20274;-78
2022/12/18 02:58:34;;;;;;;39.43;20.33;;;-1.30;99.90;;;;;;5032287;28;20343;-77
2022/12/18 03:01:35;;;;;;;39.87;19.67;;;-1.20;99.90;;;;;;5038866;28;20224;-77
2022/12/18 03:04:27;;;;;;;39.30;20.13;;;-1.00;99.90;;;;;;5059988;28;20719;-77
2022/12/18 03:07:22;;;;;;;42.73;19.83;;;-1.10;99.90;;;;;;5037798;28;20374;-78
2022/12/18 03:10:18;;;;;;;43.23;20.27;;;-1.20;99.90;;;;;;5044708;28;20243;-78
2022/12/18 03:13:09;;;;;;;45.17;20.87;;;-1.40;99.90;;;;;;5052275;28;20230;-77
2022/12/18 03:16:01;;;;;;;45.80;21.00;;;-1.10;99.90;;;;;;5043610;28;20337;-78
2022/12/18 03:18:55;;;;;;;41.13;19.80;;;-1.20;99.90;;;;;;5041667;28;20223;-78
2022/12/18 03:21:48;;;;;;;45.37;20.97;;;-1.30;99.90;;;;;;5042186;28;20236;-78
2022/12/18 03:24:39;;;;;;;46.10;21.30;;;-1.40;99.90;;;;;;5036138;28;20234;-78
2022/12/18 03:27:31;;;;;;;44.47;20.57;;;-1.40;99.90;;;;;;5031606;28;20320;-78
2022/12/18 03:30:22;;;;;;;42.97;20.63;;;-1.40;99.90;;;;;;5042737;28;20301;-77
2022/12/18 03:33:17;;;;;;;45.43;21.10;;;-1.40;99.90;;;;;;5056532;28;20216;-76
2022/12/18 03:36:08;;;;;;;48.70;21.10;;;-1.40;99.90;;;;;;5038810;28;20351;-77
2022/12/18 03:38:57;;;;;;;43.27;21.40;;;-1.30;99.90;;;;;;5041318;28;20220;-79
2022/12/18 03:41:53;;;;;;;44.07;21.27;;;-1.40;99.90;;;;;;5044655;28;20230;-77
2022/12/18 03:44:57;;;;;;;45.63;21.43;;;-1.40;99.90;;;;;;5041612;28;20275;-76
2022/12/18 03:47:59;;;;;;;47.20;21.77;;;-1.40;99.90;;;;;;5057421;28;20309;-77
2022/12/18 03:51:00;;;;;;;47.40;21.17;;;-1.30;99.90;;;;;;5053587;28;20366;-78
2022/12/18 03:53:57;;;;;;;48.90;22.40;;;-1.40;99.90;;;;;;5041252;28;20244;-77
2022/12/18 03:56:55;;;;;;;48.30;21.07;;;-1.40;99.90;;;;;;5044033;28;20217;-78
2022/12/18 03:59:46;;;;;;;40.83;19.83;;;-1.30;99.90;;;;;;5041615;28;20224;-77
2022/12/18 04:02:41;;;;;;;40.77;20.57;;;-1.40;99.90;;;;;;5048869;28;20235;-78
2022/12/18 04:05:32;;;;;;;42.97;19.47;;;-1.30;99.90;;;;;;5040717;28;20848;-77
2022/12/18 04:08:25;;;;;;;41.47;19.90;;;-1.50;99.90;;;;;;5036959;28;20239;-76
2022/12/18 04:11:23;;;;;;;44.43;20.37;;;-1.40;99.90;;;;;;5039769;28;20353;-78
2022/12/18 04:14:12;;;;;;;44.83;20.17;;;-1.30;99.90;;;;;;5049120;28;20260;-77
2022/12/18 04:17:05;;;;;;;44.57;19.37;;;-1.30;99.90;;;;;;5038827;28;20217;-77
2022/12/18 04:19:54;;;;;;;41.30;19.70;;;-1.30;99.90;;;;;;5040682;28;20234;-78
2022/12/18 04:22:45;;;;;;;45.07;20.47;;;-1.40;99.90;;;;;;5034504;28;20224;-79
2022/12/18 04:25:35;;;;;;;42.80;18.60;;;-1.40;99.90;;;;;;5039922;28;20231;-78
2022/12/18 04:28:31;;;;;;;45.00;20.53;;;-1.40;99.90;;;;;;5043400;28;20824;-76
2022/12/18 04:31:20;;;;;;;40.63;18.80;;;-1.40;99.90;;;;;;5044031;28;20306;-78
2022/12/18 04:34:09;;;;;;;43.20;18.40;;;-1.50;99.90;;;;;;5049325;28;20220;-79
2022/12/18 04:37:04;;;;;;;37.33;17.53;;;-1.50;99.90;;;;;;5043938;28;20216;-79
2022/12/18 04:39:53;;;;;;;38.23;16.93;;;-1.60;99.90;;;;;;5043927;28;20221;-78
2022/12/18 04:42:51;;;;;;;35.97;16.53;;;-1.80;99.90;;;;;;5042932;28;20223;-79
2022/12/18 04:45:40;;;;;;;36.93;16.93;;;-1.80;99.90;;;;;;5060788;28;20216;-79
2022/12/18 04:48:29;;;;;;;32.83;16.40;;;-1.70;99.90;;;;;;5040906;28;20227;-78
2022/12/18 04:51:18;;;;;;;39.00;17.57;;;-1.90;99.90;;;;;;5059814;28;20228;-82
2022/12/18 04:54:13;;;;;;;37.10;17.03;;;-1.90;99.90;;;;;;5059694;28;20224;-76
2022/12/18 04:57:02;;;;;;;36.03;17.27;;;-1.80;99.90;;;;;;5057547;28;20231;-78
2022/12/18 04:59:52;;;;;;;36.60;16.37;;;-1.70;99.90;;;;;;5044959;28;20950;-77
2022/12/18 05:02:41;;;;;;;38.97;16.23;;;-1.80;99.90;;;;;;5051563;28;20213;-77
2022/12/18 05:05:30;;;;;;;40.43;17.00;;;-1.90;99.90;;;;;;5044967;28;20224;-77
2022/12/18 05:08:19;;;;;;;39.33;18.07;;;-1.70;99.90;;;;;;5060471;28;20227;-77
2022/12/18 05:11:10;;;;;;;39.17;17.53;;;-1.70;99.90;;;;;;5046647;28;20227;-78
2022/12/18 05:14:02;;;;;;;38.87;17.13;;;-1.70;99.90;;;;;;5043213;28;20215;-78
2022/12/18 05:16:52;;;;;;;39.07;17.30;;;-1.70;99.90;;;;;;5040366;28;20231;-77
2022/12/18 05:19:47;;;;;;;35.70;16.77;;;-1.80;99.90;;;;;;5046353;28;20603;-77
2022/12/18 05:22:36;;;;;;;36.60;17.53;;;-1.90;99.90;;;;;;5056022;28;20228;-78
2022/12/18 05:25:25;;;;;;;37.13;17.43;;;-2.00;99.90;;;;;;5045295;28;20314;-78
2022/12/18 05:28:14;;;;;;;39.37;17.70;;;-1.90;99.90;;;;;;5042649;28;20240;-77
2022/12/18 05:31:04;;;;;;;39.67;18.07;;;-1.90;99.90;;;;;;5059318;28;20225;-78
2022/12/18 05:33:55;;;;;;;42.20;18.67;;;-1.90;99.90;;;;;;5060546;28;20224;-78
2022/12/18 05:36:43;;;;;;;40.47;18.43;;;-1.90;99.90;;;;;;5034491;28;20778;-78
2022/12/18 05:39:32;;;;;;;43.13;18.43;;;-2.10;99.90;;;;;;5041855;28;20228;-77
2022/12/18 05:42:21;;;;;;;44.53;19.17;;;-2.00;99.90;;;;;;5043121;28;20224;-77
2022/12/18 05:45:10;;;;;;;45.57;20.50;;;-2.00;99.90;;;;;;5033720;28;20754;-78
2022/12/18 05:47:58;;;;;;;41.23;19.07;;;-2.20;99.90;;;;;;5034773;28;20221;-78
2022/12/18 05:50:50;;;;;;;48.40;20.57;;;-2.30;99.90;;;;;;5041448;28;20227;-78
2022/12/18 05:53:39;;;;;;;44.17;19.60;;;-2.30;99.90;;;;;;5059115;28;20580;-78
2022/12/18 05:56:29;;;;;;;48.17;20.40;;;-2.20;99.90;;;;;;5037250;28;20262;-78
2022/12/18 05:59:17;;;;;;;47.33;20.20;;;-2.10;99.90;;;;;;5044637;28;20235;-77
2022/12/18 06:02:06;;;;;;;43.57;19.43;;;-2.00;99.90;;;;;;5040271;28;20231;-77
2022/12/18 06:04:55;;;;;;;53.77;19.93;;;-2.00;99.90;;;;;;5043070;28;20261;-76
2022/12/18 06:07:45;;;;;;;46.30;19.33;;;-2.10;99.90;;;;;;5042671;28;20221;-79
2022/12/18 06:10:34;;;;;;;54.23;21.23;;;-2.00;99.90;;;;;;5060507;28;20230;-77
2022/12/18 06:13:23;;;;;;;53.63;21.43;;;-2.00;99.90;;;;;;5044699;28;20498;-76
2022/12/18 06:16:11;;;;;;;51.70;21.23;;;-2.10;99.90;;;;;;5042966;28;20813;-77
2022/12/18 06:19:01;;;;;;;55.93;22.27;;;-2.10;99.90;;;;;;5042842;28;20330;-77
2022/12/18 06:21:51;;;;;;;51.80;21.03;;;-1.90;99.90;;;;;;5049792;28;20236;-77
2022/12/18 06:24:41;;;;;;;52.83;20.00;;;-1.80;99.90;;;;;;5041277;28;20232;-77
2022/12/18 06:27:30;;;;;;;50.33;20.67;;;-1.80;99.90;;;;;;5058278;28;20228;-77
2022/12/18 06:30:19;;;;;;;55.83;21.27;;;-1.90;99.90;;;;;;5039344;28;20694;-77
2022/12/18 06:33:07;;;;;;;54.67;21.03;;;-2.00;99.90;;;;;;5051793;28;20705;-77
2022/12/18 06:36:00;;;;;;;53.50;20.53;;;-2.10;99.90;;;;;;5039192;28;20730;-78
2022/12/18 06:38:49;;;;;;;55.97;20.10;;;-2.00;99.90;;;;;;5056784;28;20243;-77
2022/12/18 06:41:39;;;;;;;59.60;22.50;;;-2.10;99.90;;;;;;5055653;28;20229;-78
2022/12/18 06:44:28;;;;;;;57.90;22.47;;;-2.00;99.90;;;;;;5044429;28;20222;-77
2022/12/18 06:47:17;;;;;;;52.67;22.13;;;-1.90;99.90;;;;;;5042376;28;20313;-77
2022/12/18 06:50:06;;;;;;;62.33;22.70;;;-1.90;99.90;;;;;;5042237;28;20215;-78
2022/12/18 06:52:55;;;;;;;54.07;22.03;;;-1.80;99.90;;;;;;5054831;28;20228;-76
2022/12/18 06:55:44;;;;;;;53.83;22.07;;;-1.80;99.90;;;;;;5046227;28;20217;-77
2022/12/18 06:58:34;;;;;;;56.03;20.77;;;-1.70;99.90;;;;;;5039723;28;20212;-76
2022/12/18 07:01:23;;;;;;;53.40;20.60;;;-1.80;99.90;;;;;;5055644;28;20224;-79
2022/12/18 07:04:12;;;;;;;55.57;21.97;;;-1.90;99.90;;;;;;5054780;28;20231;-78
2022/12/18 07:07:01;;;;;;;50.97;20.00;;;-1.80;99.90;;;;;;5056928;28;20219;-78
2022/12/18 07:09:54;;;;;;;57.97;21.63;;;-1.80;99.90;;;;;;5043789;28;20225;-80
2022/12/18 07:12:43;;;;;;;57.77;23.27;;;-1.70;99.90;;;;;;5039939;28;20239;-79
2022/12/18 07:15:33;;;;;;;55.60;20.67;;;-1.60;99.90;;;;;;5036036;28;20239;-79
2022/12/18 07:18:22;;;;;;;54.90;21.97;;;-1.60;99.90;;;;;;5048439;28;20235;-77
2022/12/18 07:21:12;;;;;;;59.20;23.07;;;-1.50;99.90;;;;;;5055531;28;20213;-78
2022/12/18 07:24:01;;;;;;;53.93;21.90;;;-1.50;99.90;;;;;;5031214;28;20318;-79
2022/12/18 07:26:49;;;;;;;50.97;21.53;;;-1.50;99.90;;;;;;5018478;28;20228;-78
2022/12/18 07:29:38;;;;;;;55.13;22.77;;;-1.40;99.90;;;;;;5030882;28;20220;-77
2022/12/18 07:32:28;;;;;;;54.23;22.57;;;-1.40;99.90;;;;;;5040958;28;20236;-77
2022/12/18 07:35:18;;;;;;;52.80;21.87;;;-1.40;99.90;;;;;;5058944;28;20229;-77
2022/12/18 07:38:12;;;;;;;53.13;21.83;;;-1.50;99.90;;;;;;5056455;28;20231;-79
2022/12/18 07:41:02;;;;;;;63.50;22.00;;;-1.50;99.90;;;;;;5038405;28;20221;-77
2022/12/18 07:43:54;;;;;;;58.30;22.83;;;-1.60;99.90;;;;;;5045340;28;20251;-77
2022/12/18 07:46:42;;;;;;;56.87;22.70;;;-1.50;99.90;;;;;;5057434;28;20223;-77
2022/12/18 07:49:36;;;;;;;60.87;24.10;;;-1.50;99.90;;;;;;5039228;28;20224;-76
2022/12/18 07:52:25;;;;;;;60.60;23.87;;;-1.40;99.90;;;;;;5057202;28;20232;-78
2022/12/18 07:55:15;;;;;;;58.27;24.20;;;-1.40;99.90;;;;;;5042466;28;20302;-77
2022/12/18 07:58:04;;;;;;;57.17;24.40;;;-1.30;99.90;;;;;;5039564;28;20327;-77
2022/12/18 08:00:53;;;;;;;63.03;23.77;;;-1.30;99.90;;;;;;5055188;28;20224;-77
2022/12/18 08:03:42;;;;;;;54.20;22.70;;;-1.40;99.90;;;;;;5044521;28;20220;-77
2022/12/18 08:06:32;;;;;;;54.63;23.07;;;-1.40;99.90;;;;;;5046168;28;20591;-78
2022/12/18 08:09:21;;;;;;;55.83;22.40;;;-1.50;99.90;;;;;;5045271;28;20250;-78
2022/12/18 08:12:09;;;;;;;57.37;23.50;;;-1.30;99.90;;;;;;5047223;28;20216;-79
2022/12/18 08:14:58;;;;;;;56.23;23.43;;;-1.30;99.90;;;;;;5062560;28;20306;-79
2022/12/18 08:17:47;;;;;;;55.33;23.67;;;-1.20;99.90;;;;;;5045691;28;20235;-79
2022/12/18 08:20:39;;;;;;;52.43;22.33;;;-1.20;99.90;;;;;;5044392;28;20223;-78
2022/12/18 08:23:29;;;;;;;55.73;22.43;;;-1.10;99.90;;;;;;5041535;28;20228;-79
2022/12/18 08:26:18;;;;;;;58.10;23.60;;;-1.10;99.90;;;;;;5042892;28;20804;-77
2022/12/18 08:29:09;;;;;;;56.73;23.30;;;-1.00;99.90;;;;;;5045631;28;20731;-76
2022/12/18 08:31:58;;;;;;;52.67;22.63;;;-1.10;99.90;;;;;;5044358;28;20778;-75
2022/12/18 08:34:46;;;;;;;51.07;23.13;;;-1.20;99.90;;;;;;5043874;28;20232;-78
2022/12/18 08:37:35;;;;;;;54.73;22.23;;;-1.20;99.90;;;;;;5049438;28;20253;-75
2022/12/18 08:40:25;;;;;;;48.47;22.53;;;-1.10;99.90;;;;;;5043131;28;20583;-79
2022/12/18 08:46:22;;;;;;;54.73;22.83;;;-1.10;99.90;;;;;;5044929;28;20228;-78
2022/12/18 08:49:12;;;;;;;52.73;22.73;;;-1.10;99.90;;;;;;5060845;28;20252;-79
2022/12/18 08:52:02;;;;;;;54.17;22.93;;;-1.20;99.90;;;;;;5061098;28;20247;-79
2022/12/18 08:54:51;;;;;;;53.93;23.00;;;-1.20;99.90;;;;;;5041633;28;20217;-79
2022/12/18 08:57:41;;;;;;;55.57;24.07;;;-1.20;99.90;;;;;;5044077;28;20227;-79
2022/12/18 09:00:32;;;;;;;52.10;25.57;;;-1.00;99.90;;;;;;5043701;28;20256;-78
2022/12/18 09:03:22;;;;;;;63.50;25.43;;;-1.00;99.90;;;;;;5042733;28;20216;-78
2022/12/18 09:06:15;;;;;;;54.00;23.93;;;-1.00;99.90;;;;;;5062098;28;20224;-78
2022/12/18 09:09:05;;;;;;;51.60;23.80;;;-0.90;99.90;;;;;;5059842;28;20307;-78
2022/12/18 09:11:53;;;;;;;57.20;25.30;;;-0.90;99.90;;;;;;5061151;28;20255;-79
2022/12/18 09:14:44;;;;;;;53.70;23.77;;;-1.10;99.90;;;;;;5056732;28;20228;-79
2022/12/18 09:17:32;;;;;;;54.63;24.07;;;-1.00;99.90;;;;;;5042479;28;20587;-79
2022/12/18 09:20:21;;;;;;;54.33;24.43;;;-1.10;99.90;;;;;;5054112;28;20221;-80
2022/12/18 09:23:10;;;;;;;54.10;25.00;;;-0.90;99.90;;;;;;5043041;28;20221;-76
2022/12/18 09:26:00;;;;;;;56.37;24.77;;;-0.80;99.90;;;;;;5057111;28;20220;-77
2022/12/18 09:28:49;;;;;;;60.50;26.90;;;-0.70;99.90;;;;;;5060384;28;20277;-80
2022/12/18 09:31:40;;;;;;;58.83;27.07;;;-0.70;99.90;;;;;;5041582;28;20301;-78
2022/12/18 09:34:29;;;;;;;59.87;27.47;;;-0.90;99.90;;;;;;5049260;28;20224;-77
2022/12/18 09:37:17;;;;;;;60.80;27.93;;;-0.80;99.90;;;;;;5040165;28;20216;-79
2022/12/18 09:40:08;;;;;;;60.03;28.33;;;-0.60;99.90;;;;;;5040635;28;20259;-78
2022/12/18 09:43:01;;;;;;;68.57;28.27;;;-0.60;99.90;;;;;;5048065;28;20235;-78
2022/12/18 09:45:55;;;;;;;62.47;28.53;;;-0.50;99.90;;;;;;5057855;28;20231;-79
2022/12/18 09:48:50;;;;;;;62.00;27.57;;;-0.60;99.90;;;;;;5040588;28;20220;-78
2022/12/18 09:51:44;;;;;;;62.83;29.13;;;-0.60;99.90;;;;;;5059711;28;20238;-79
2022/12/18 09:54:37;;;;;;;60.63;27.90;;;-0.50;99.90;;;;;;5036192;28;20228;-78
2022/12/18 09:57:27;;;;;;;59.37;28.03;;;-0.60;99.90;;;;;;5040811;28;20374;-78
2022/12/18 10:00:18;;;;;;;62.97;28.10;;;-0.60;99.90;;;;;;5056011;28;20303;-83
2022/12/18 10:03:12;;;;;;;65.40;28.87;;;-0.70;99.90;;;;;;5042330;28;20216;-81
2022/12/18 10:06:12;;;;;;;62.53;29.47;;;-0.60;99.90;;;;;;5040064;28;20941;-83
2022/12/18 10:09:06;;;;;;;61.70;30.27;;;-0.60;99.90;;;;;;5058701;28;20413;-79
2022/12/18 10:12:03;;;;;;;71.03;30.37;;;-0.40;99.90;;;;;;5048544;28;20236;-79
2022/12/18 10:15:00;;;;;;;73.10;31.70;;;-0.50;99.90;;;;;;5059285;28;20236;-81
2022/12/18 10:17:57;;;;;;;71.10;32.43;;;-0.60;99.90;;;;;;5043091;28;20223;-81
2022/12/18 10:20:49;;;;;;;74.00;31.27;;;-0.50;99.90;;;;;;5057352;28;20816;-81
2022/12/18 10:23:46;;;;;;;74.70;31.87;;;-0.50;99.90;;;;;;5044245;28;20212;-82
2022/12/18 10:26:36;;;;;;;65.50;31.03;;;-0.40;99.90;;;;;;5043892;28;20695;-79
2022/12/18 10:29:26;;;;;;;70.23;30.97;;;-0.30;99.90;;;;;;5051853;28;20220;-81
2022/12/18 10:32:18;;;;;;;67.80;28.43;;;-0.50;99.90;;;;;;5053499;28;20603;-80
2022/12/18 10:35:17;;;;;;;67.90;30.10;;;-0.60;99.90;;;;;;5057959;28;20479;-81
2022/12/18 10:38:21;;;;;;;68.97;30.70;;;-0.60;99.90;;;;;;5044097;28;20220;-80
2022/12/18 10:41:26;;;;;;;70.20;29.70;;;-0.60;99.90;;;;;;5040650;28;20314;-81
2022/12/18 10:44:20;;;;;;;69.03;30.83;;;-0.70;99.90;;;;;;5055482;28;20253;-80
2022/12/18 10:47:16;;;;;;;74.00;32.30;;;-0.80;99.90;;;;;;5055427;28;20217;-81
2022/12/18 10:50:05;;;;;;;65.87;29.30;;;-0.70;99.90;;;;;;5042114;28;20219;-80
2022/12/18 10:52:56;;;;;;;74.10;31.23;;;-0.70;99.90;;;;;;5048318;28;20231;-80
2022/12/18 10:55:47;;;;;;;70.77;30.30;;;-0.60;99.90;;;;;;5040775;28;20220;-79
2022/12/18 10:58:39;;;;;;;65.83;30.33;;;-0.50;99.90;;;;;;5049276;28;20229;-81
2022/12/18 11:01:32;;;;;;;68.07;29.67;;;-0.60;99.90;;;;;;5042921;28;20239;-80
2022/12/18 11:04:23;;;;;;;66.27;28.07;;;-0.60;99.90;;;;;;5045950;28;20217;-85
2022/12/18 11:07:12;;;;;;;65.30;29.87;;;-0.50;99.90;;;;;;5061168;28;20217;-77
2022/12/18 11:10:03;;;;;;;67.27;29.77;;;-0.40;99.90;;;;;;5041647;28;20216;-79
2022/12/18 11:12:52;;;;;;;70.57;30.87;;;-0.40;99.90;;;;;;5044257;28;20231;-80
2022/12/18 11:15:43;;;;;;;71.50;29.83;;;-0.40;99.90;;;;;;5036533;28;20224;-79
2022/12/18 11:18:34;;;;;;;72.20;30.97;;;-0.30;99.90;;;;;;5036280;28;20228;-79
2022/12/18 11:21:23;;;;;;;73.50;32.17;;;-0.40;99.90;;;;;;5040098;28;20226;-80
2022/12/18 11:24:23;;;;;;;70.63;30.60;;;-0.40;99.90;;;;;;5043780;28;20227;-80
2022/12/18 11:27:18;;;;;;;79.10;31.83;;;-0.30;99.90;;;;;;5052523;28;20699;-80
2022/12/18 11:30:22;;;;;;;81.20;33.03;;;-0.20;99.90;;;;;;5043844;28;20216;-80
2022/12/18 11:33:16;;;;;;;73.50;31.30;;;-0.20;99.90;;;;;;5039159;28;21131;-79
2022/12/18 11:36:09;;;;;;;74.43;32.53;;;-0.30;99.90;;;;;;5053288;28;20236;-81
2022/12/18 11:39:04;;;;;;;72.33;30.17;;;-0.20;99.90;;;;;;5039535;28;20224;-79
2022/12/18 11:42:12;;;;;;;72.67;30.60;;;-0.30;99.90;;;;;;5040559;28;20244;-80
2022/12/18 11:45:15;;;;;;;68.40;30.20;;;-0.40;99.90;;;;;;5047821;28;20301;-77
2022/12/18 11:48:10;;;;;;;67.43;30.73;;;-0.40;99.90;;;;;;5050984;28;20219;-81
2022/12/18 11:51:02;;;;;;;73.60;30.50;;;-0.30;99.90;;;;;;5054091;28;20228;-81
2022/12/18 11:53:52;;;;;;;78.93;30.53;;;-0.20;99.90;;;;;;5053693;28;20217;-79
2022/12/18 11:56:47;;;;;;;73.40;31.63;;;0.00;99.90;;;;;;5037105;28;20227;-81
2022/12/18 11:59:42;;;;;;;71.43;32.07;;;-0.20;99.90;;;;;;5059816;28;20249;-81
2022/12/18 12:02:49;;;;;;;80.17;34.20;;;-0.20;99.90;;;;;;5050966;28;20233;-82
2022/12/18 12:05:49;;;;;;;72.20;31.33;;;0.00;99.90;;;;;;5043844;28;20346;-81
2022/12/18 12:08:52;;;;;;;78.17;33.20;;;0.00;99.90;;;;;;5046294;28;20239;-81
2022/12/18 12:11:51;;;;;;;67.40;30.83;;;0.10;99.90;;;;;;5055991;28;20219;-81
2022/12/18 12:14:50;;;;;;;77.73;31.50;;;-0.10;99.90;;;;;;5026699;28;20223;-81
2022/12/18 12:17:46;;;;;;;72.57;31.93;;;-0.20;99.90;;;;;;5034367;28;20291;-81
2022/12/18 12:20:45;;;;;;;74.17;32.90;;;-0.10;99.90;;;;;;5054239;28;20982;-81
2022/12/18 12:23:44;;;;;;;71.67;31.27;;;-0.10;99.90;;;;;;5055925;28;20229;-81
2022/12/18 12:26:42;;;;;;;78.13;32.60;;;-0.20;99.90;;;;;;5042673;28;20215;-81
2022/12/18 12:29:42;;;;;;;80.47;31.77;;;-0.10;99.90;;;;;;5057044;28;20231;-80
2022/12/18 12:32:46;;;;;;;74.70;32.30;;;-0.20;99.90;;;;;;5044196;28;20221;-81
2022/12/18 12:35:47;;;;;;;70.53;31.33;;;-0.20;99.90;;;;;;5059433;28;20256;-81
2022/12/18 12:38:45;;;;;;;75.30;32.73;;;-0.20;99.90;;;;;;5060069;28;20631;-81
2022/12/18 12:44:52;;;;;;;76.53;32.10;;;0.00;99.90;;;;;;5040282;28;20221;-80
2022/12/18 12:47:46;;;;;;;76.27;32.77;;;-0.20;99.90;;;;;;5042811;28;20236;-80
2022/12/18 12:50:37;;;;;;;76.47;30.47;;;-0.20;99.90;;;;;;5040145;28;20230;-81
2022/12/18 12:53:31;;;;;;;71.00;31.13;;;-0.20;99.90;;;;;;5043054;28;20234;-81
2022/12/18 12:56:21;;;;;;;72.43;31.40;;;-0.30;99.90;;;;;;5059809;28;20224;-81
2022/12/18 12:59:20;;;;;;;71.10;30.43;;;-0.50;99.90;;;;;;5054595;28;20221;-81
2022/12/18 13:02:19;;;;;;;77.17;32.20;;;-0.50;99.90;;;;;;5039460;28;20243;-82
2022/12/18 13:05:18;;;;;;;75.83;31.20;;;-0.30;99.90;;;;;;5039958;28;20221;-81
2022/12/18 13:08:10;;;;;;;69.67;30.80;;;-0.20;99.90;;;;;;5047253;28;20223;-81
2022/12/18 13:14:04;;;;;;;68.07;29.20;;;-0.30;99.90;;;;;;5045503;28;20216;-81
2022/12/18 13:17:18;;;;;;;69.77;30.97;;;-0.60;99.90;;;;;;5047476;28;20472;-81
2022/12/18 13:20:10;;;;;;;71.93;33.23;;;-0.50;99.90;;;;;;5046966;28;20225;-81
2022/12/18 13:23:01;;;;;;;69.47;31.10;;;-0.50;99.90;;;;;;5039820;28;20405;-82
2022/12/18 13:25:50;;;;;;;74.93;32.07;;;-0.50;99.90;;;;;;5060446;28;20217;-82
2022/12/18 13:28:53;;;;;;;70.67;31.77;;;-0.70;99.90;;;;;;5043215;28;20213;-80
2022/12/18 13:32:32;;;;;;;66.10;30.33;;;-0.60;99.90;;;;;;5031173;28;20275;-82
2022/12/18 13:35:39;;;;;;;64.53;29.80;;;-0.70;99.90;;;;;;5058132;28;20286;-82
2022/12/18 13:38:34;;;;;;;62.40;27.73;;;-0.60;99.90;;;;;;5038528;28;20225;-82
2022/12/18 13:41:26;;;;;;;62.63;29.33;;;-0.50;99.90;;;;;;5043040;28;20251;-81
2022/12/18 13:44:33;;;;;;;72.37;29.03;;;-0.60;99.90;;;;;;5056579;28;21311;-80
2022/12/18 13:47:34;;;;;;;61.97;28.03;;;-0.60;99.90;;;;;;5035947;28;20217;-82
2022/12/18 13:50:25;;;;;;;67.27;29.57;;;-0.70;99.90;;;;;;5054884;28;20217;-81
2022/12/18 13:53:25;;;;;;;64.37;28.77;;;-0.70;99.90;;;;;;5054786;28;20220;-83
2022/12/18 13:56:17;;;;;;;69.10;30.63;;;-0.60;99.90;;;;;;5050551;28;20382;-80
2022/12/18 13:59:19;;;;;;;73.83;31.03;;;-0.60;99.90;;;;;;5040061;28;20216;-79
2022/12/18 14:02:15;;;;;;;66.03;28.67;;;-0.50;99.90;;;;;;5054327;28;20228;-80
2022/12/18 14:05:22;;;;;;;66.63;30.50;;;-0.70;99.90;;;;;;5054754;28;20709;-80
2022/12/18 14:08:14;;;;;;;64.50;28.97;;;-0.70;99.90;;;;;;5038609;28;20706;-81
2022/12/18 14:11:06;;;;;;;66.83;30.63;;;-0.80;99.90;;;;;;5045060;28;20315;-81
2022/12/18 14:13:57;;;;;;;66.90;28.13;;;-0.90;99.90;;;;;;5038323;28;20254;-80
2022/12/18 14:16:47;;;;;;;62.43;28.63;;;-0.80;99.90;;;;;;5043812;28;20220;-80
2022/12/18 14:19:37;;;;;;;67.60;31.37;;;-0.90;99.90;;;;;;5043561;28;20236;-80
2022/12/18 14:22:29;;;;;;;65.77;29.80;;;-0.80;99.90;;;;;;5041236;28;20600;-80
2022/12/18 14:25:20;;;;;;;69.47;29.33;;;-0.80;99.90;;;;;;5040669;28;20220;-81
2022/12/18 14:28:15;;;;;;;70.53;30.20;;;-0.70;99.90;;;;;;5042099;28;20224;-80
2022/12/18 14:31:03;;;;;;;70.83;31.47;;;-0.60;99.90;;;;;;5045990;28;20309;-82
2022/12/18 14:33:53;;;;;;;70.30;31.20;;;-0.60;99.90;;;;;;5039058;28;20227;-81
2022/12/18 14:36:41;;;;;;;67.90;29.57;;;-0.70;99.90;;;;;;5053248;28;20228;-80
2022/12/18 14:39:32;;;;;;;74.60;31.73;;;-0.60;99.90;;;;;;5042766;28;20231;-84
2022/12/18 14:42:20;;;;;;;69.50;29.30;;;-0.70;99.90;;;;;;5056179;28;21072;-80
2022/12/18 14:45:35;;;;;;;66.97;29.40;;;-0.70;99.90;;;;;;5060188;28;20777;-81